sensor_id;sensor_type;location;lat;lon;timestamp;pressure;altitude;pressure_sealevel;temperature;humidity
29549;BME280;16487;53.094;8.800;2022-09-21T00:00:22;103046.13;;;9.08;100.00
29549;BME280;16487;53.094;8.800;2022-09-21T00:02:50;103041.41;;;9.12;100.00
29549;BME280;16487;53.094;8.800;2022-09-21T00:05:17;103048.50;;;9.06;100.00
29549;BME280;16487;53.094;8.800;2022-09-21T00:07:45;103045.19;;;8.97;100.00
29549;BME280;16487;53.094;8.800;2022-09-21T00:10:13;103054.91;;;9.10;100.00
29549;BME280;16487;53.094;8.800;2022-09-21T00:12:41;103055.53;;;9.00;100.00
29549;BME280;16487;53.094;8.800;2022-09-21T00:15:09;103070.75;;;9.06;100.00
29549;BME280;16487;53.094;8.800;2022-09-21T00:17:37;103065.28;;;9.13;100.00
29549;BME280;16487;53.094;8.800;2022-09-21T00:20:05;103062.72;;;9.01;100.00
29549;BME280;16487;53.094;8.800;2022-09-21T00:22:32;103067.25;;;9.13;100.00
29549;BME280;16487;53.094;8.800;2022-09-21T00:25:00;103069.22;;;9.12;100.00
29549;BME280;16487;53.094;8.800;2022-09-21T00:27:29;103065.19;;;9.06;100.00
29549;BME280;16487;53.094;8.800;2022-09-21T00:29:57;103064.31;;;9.02;100.00
29549;BME280;16487;53.094;8.800;2022-09-21T00:32:24;103057.97;;;9.02;100.00
29549;BME280;16487;53.094;8.800;2022-09-21T00:34:52;103060.44;;;9.07;100.00
29549;BME280;16487;53.094;8.800;2022-09-21T00:37:19;103055.38;;;8.86;100.00
29549;BME280;16487;53.094;8.800;2022-09-21T00:39:46;103061.31;;;8.88;100.00
29549;BME280;16487;53.094;8.800;2022-09-21T00:42:16;103055.38;;;8.86;100.00
29549;BME280;16487;53.094;8.800;2022-09-21T00:44:45;103065.78;;;8.93;100.00
29549;BME280;16487;53.094;8.800;2022-09-21T00:47:14;103060.75;;;8.76;100.00
29549;BME280;16487;53.094;8.800;2022-09-21T00:49:46;103062.72;;;8.75;100.00
29549;BME280;16487;53.094;8.800;2022-09-21T00:52:15;103063.00;;;8.67;100.00
29549;BME280;16487;53.094;8.800;2022-09-21T00:54:48;103064.66;;;8.71;100.00
29549;BME280;16487;53.094;8.800;2022-09-21T00:57:18;103070.09;;;8.64;100.00
29549;BME280;16487;53.094;8.800;2022-09-21T00:59:49;103078.38;;;8.61;100.00
29549;BME280;16487;53.094;8.800;2022-09-21T01:02:17;103088.59;;;8.53;100.00
29549;BME280;16487;53.094;8.800;2022-09-21T01:04:45;103089.09;;;8.59;100.00
29549;BME280;16487;53.094;8.800;2022-09-21T01:07:17;103098.22;;;8.59;100.00
29549;BME280;16487;53.094;8.800;2022-09-21T01:09:50;103105.16;;;8.46;100.00
29549;BME280;16487;53.094;8.800;2022-09-21T01:12:28;103119.91;;;8.50;100.00
29549;BME280;16487;53.094;8.800;2022-09-21T01:15:15;103123.97;;;8.56;100.00
29549;BME280;16487;53.094;8.800;2022-09-21T01:17:51;103140.34;;;8.61;100.00
29549;BME280;16487;53.094;8.800;2022-09-21T01:29:48;103199.22;;;8.44;100.00
29549;BME280;16487;53.094;8.800;2022-09-21T01:32:21;103207.16;;;8.46;100.00
29549;BME280;16487;53.094;8.800;2022-09-21T01:34:52;103216.38;;;8.50;100.00
29549;BME280;16487;53.094;8.800;2022-09-21T01:37:25;103228.78;;;8.56;100.00
29549;BME280;16487;53.094;8.800;2022-09-21T01:39:59;103234.66;;;8.51;100.00
29549;BME280;16487;53.094;8.800;2022-09-21T01:42:29;103251.41;;;8.54;100.00
29549;BME280;16487;53.094;8.800;2022-09-21T01:45:01;103264.41;;;8.50;100.00
29549;BME280;16487;53.094;8.800;2022-09-21T01:47:30;103266.84;;;8.52;100.00
29549;BME280;16487;53.094;8.800;2022-09-21T01:50:00;103266.56;;;8.38;100.00
29549;BME280;16487;53.094;8.800;2022-09-21T01:52:32;103277.91;;;8.29;100.00
29549;BME280;16487;53.094;8.800;2022-09-21T01:55:05;103300.63;;;8.35;100.00
29549;BME280;16487;53.094;8.800;2022-09-21T01:57:37;103315.56;;;8.27;100.00
29549;BME280;16487;53.094;8.800;2022-09-21T02:00:08;103325.75;;;8.23;100.00
29549;BME280;16487;53.094;8.800;2022-09-21T02:02:43;103340.66;;;8.14;100.00
29549;BME280;16487;53.094;8.800;2022-09-21T02:05:14;103365.00;;;8.21;100.00
29549;BME280;16487;53.094;8.800;2022-09-21T02:07:43;103373.72;;;8.20;100.00
29549;BME280;16487;53.094;8.800;2022-09-21T02:10:15;103393.25;;;8.23;100.00
29549;BME280;16487;53.094;8.800;2022-09-21T02:12:44;103407.41;;;8.18;100.00
29549;BME280;16487;53.094;8.800;2022-09-21T02:15:14;103421.75;;;8.20;100.00
29549;BME280;16487;53.094;8.800;2022-09-21T02:17:49;103436.09;;;8.22;100.00
29549;BME280;16487;53.094;8.800;2022-09-21T02:20:26;103459.03;;;8.19;100.00
29549;BME280;16487;53.094;8.800;2022-09-21T02:23:00;103473.28;;;8.18;100.00
29549;BME280;16487;53.094;8.800;2022-09-21T02:25:36;103491.03;;;8.13;100.00
29549;BME280;16487;53.094;8.800;2022-09-21T02:28:07;103510.47;;;8.13;100.00
29549;BME280;16487;53.094;8.800;2022-09-21T02:30:40;103524.47;;;8.01;100.00
29549;BME280;16487;53.094;8.800;2022-09-21T02:33:18;103536.47;;;8.05;100.00
29549;BME280;16487;53.094;8.800;2022-09-21T02:35:52;103559.13;;;8.07;100.00
29549;BME280;16487;53.094;8.800;2022-09-21T02:38:24;103581.25;;;8.19;100.00
29549;BME280;16487;53.094;8.800;2022-09-21T02:41:03;103598.19;;;8.14;100.00
29549;BME280;16487;53.094;8.800;2022-09-21T02:43:35;103626.16;;;8.05;100.00
29549;BME280;16487;53.094;8.800;2022-09-21T02:46:09;103639.50;;;8.15;100.00
29549;BME280;16487;53.094;8.800;2022-09-21T02:48:43;103668.78;;;8.25;100.00
29549;BME280;16487;53.094;8.800;2022-09-21T02:51:16;103677.53;;;8.11;100.00
29549;BME280;16487;53.094;8.800;2022-09-21T02:53:45;103691.22;;;8.04;100.00
29549;BME280;16487;53.094;8.800;2022-09-21T02:56:15;103715.13;;;8.09;100.00
29549;BME280;16487;53.094;8.800;2022-09-21T02:58:46;103738.06;;;8.06;100.00
29549;BME280;16487;53.094;8.800;2022-09-21T03:01:16;103752.22;;;8.01;100.00
29549;BME280;16487;53.094;8.800;2022-09-21T03:03:45;103768.19;;;7.92;100.00
29549;BME280;16487;53.094;8.800;2022-09-21T03:06:13;103791.34;;;7.96;100.00
29549;BME280;16487;53.094;8.800;2022-09-21T03:08:40;103816.09;;;8.01;100.00
29549;BME280;16487;53.094;8.800;2022-09-21T03:11:07;103842.59;;;7.98;100.00
29549;BME280;16487;53.094;8.800;2022-09-21T03:13:35;103855.13;;;7.92;100.00
29549;BME280;16487;53.094;8.800;2022-09-21T03:16:04;103884.16;;;7.95;100.00
29549;BME280;16487;53.094;8.800;2022-09-21T03:18:33;103902.66;;;8.03;100.00
29549;BME280;16487;53.094;8.800;2022-09-21T03:21:01;103935.06;;;7.99;100.00
29549;BME280;16487;53.094;8.800;2022-09-21T03:23:28;103956.59;;;8.02;100.00
29549;BME280;16487;53.094;8.800;2022-09-21T03:25:56;103961.56;;;7.96;100.00
29549;BME280;16487;53.094;8.800;2022-09-21T03:28:23;103981.59;;;8.02;100.00
29549;BME280;16487;53.094;8.800;2022-09-21T03:30:51;103984.94;;;7.95;100.00
29549;BME280;16487;53.094;8.800;2022-09-21T03:33:19;103988.75;;;7.79;100.00
29549;BME280;16487;53.094;8.800;2022-09-21T03:35:48;104005.56;;;7.82;100.00
29549;BME280;16487;53.094;8.800;2022-09-21T03:38:16;104022.34;;;7.86;100.00
29549;BME280;16487;53.094;8.800;2022-09-21T03:40:44;104038.63;;;7.75;100.00
29549;BME280;16487;53.094;8.800;2022-09-21T03:43:11;104052.16;;;7.77;100.00
29549;BME280;16487;53.094;8.800;2022-09-21T03:45:39;104059.06;;;7.71;100.00
29549;BME280;16487;53.094;8.800;2022-09-21T03:48:06;104066.78;;;7.65;100.00
29549;BME280;16487;53.094;8.800;2022-09-21T03:50:34;104070.69;;;7.52;100.00
29549;BME280;16487;53.094;8.800;2022-09-21T03:53:03;104090.16;;;7.64;100.00
29549;BME280;16487;53.094;8.800;2022-09-21T03:55:30;104107.88;;;7.60;100.00
29549;BME280;16487;53.094;8.800;2022-09-21T03:57:58;104105.44;;;7.58;100.00
29549;BME280;16487;53.094;8.800;2022-09-21T04:00:25;104129.66;;;7.70;100.00
29549;BME280;16487;53.094;8.800;2022-09-21T04:02:53;104128.44;;;7.59;100.00
29549;BME280;16487;53.094;8.800;2022-09-21T04:05:20;104149.63;;;7.63;99.84
29549;BME280;16487;53.094;8.800;2022-09-21T04:07:48;104157.16;;;7.63;99.28
29549;BME280;16487;53.094;8.800;2022-09-21T04:10:19;104166.38;;;7.55;99.15
29549;BME280;16487;53.094;8.800;2022-09-21T04:12:46;104184.84;;;7.51;99.06
29549;BME280;16487;53.094;8.800;2022-09-21T04:15:16;104184.72;;;7.47;98.76
29549;BME280;16487;53.094;8.800;2022-09-21T04:17:43;104198.94;;;7.66;97.12
29549;BME280;16487;53.094;8.800;2022-09-21T04:20:11;104204.75;;;7.53;97.59
29549;BME280;16487;53.094;8.800;2022-09-21T04:22:38;104216.66;;;7.53;96.99
29549;BME280;16487;53.094;8.800;2022-09-21T04:25:10;104240.97;;;7.56;96.63
29549;BME280;16487;53.094;8.800;2022-09-21T04:27:39;104256.75;;;7.64;96.16
29549;BME280;16487;53.094;8.800;2022-09-21T04:30:08;104249.16;;;7.53;97.47
29549;BME280;16487;53.094;8.800;2022-09-21T04:32:36;104242.31;;;7.50;96.08
29549;BME280;16487;53.094;8.800;2022-09-21T04:35:04;104266.31;;;7.55;93.78
29549;BME280;16487;53.094;8.800;2022-09-21T04:37:31;104278.06;;;7.52;93.27
29549;BME280;16487;53.094;8.800;2022-09-21T04:39:58;104278.72;;;7.49;93.18
29549;BME280;16487;53.094;8.800;2022-09-21T04:42:26;104295.38;;;7.49;92.01
29549;BME280;16487;53.094;8.800;2022-09-21T04:44:54;104297.19;;;7.45;91.85
29549;BME280;16487;53.094;8.800;2022-09-21T04:47:22;104313.81;;;7.53;91.23
29549;BME280;16487;53.094;8.800;2022-09-21T04:49:49;104317.44;;;7.45;91.46
29549;BME280;16487;53.094;8.800;2022-09-21T04:52:16;104320.75;;;7.39;91.46
29549;BME280;16487;53.094;8.800;2022-09-21T04:54:45;104322.84;;;7.42;91.00
29549;BME280;16487;53.094;8.800;2022-09-21T04:57:13;104339.69;;;7.37;90.81
29549;BME280;16487;53.094;8.800;2022-09-21T04:59:40;104343.78;;;7.39;90.42
29549;BME280;16487;53.094;8.800;2022-09-21T05:02:08;104357.50;;;7.36;89.86
29549;BME280;16487;53.094;8.800;2022-09-21T05:04:36;104374.81;;;7.33;89.61
29549;BME280;16487;53.094;8.800;2022-09-21T05:07:03;104376.78;;;7.32;89.41
29549;BME280;16487;53.094;8.800;2022-09-21T05:09:30;104376.25;;;7.39;88.51
29549;BME280;16487;53.094;8.800;2022-09-21T05:11:58;104382.19;;;7.29;88.56
29549;BME280;16487;53.094;8.800;2022-09-21T05:14:25;104399.28;;;7.31;88.14
29549;BME280;16487;53.094;8.800;2022-09-21T05:16:52;104418.88;;;7.43;87.31
29549;BME280;16487;53.094;8.800;2022-09-21T05:19:21;104417.09;;;7.30;87.63
29549;BME280;16487;53.094;8.800;2022-09-21T05:21:48;104447.78;;;7.33;87.51
29549;BME280;16487;53.094;8.800;2022-09-21T05:24:15;104456.41;;;7.40;87.90
29549;BME280;16487;53.094;8.800;2022-09-21T05:26:43;104443.84;;;7.43;87.73
29549;BME280;16487;53.094;8.800;2022-09-21T05:29:10;104460.94;;;7.45;86.92
29549;BME280;16487;53.094;8.800;2022-09-21T05:31:42;104452.47;;;7.41;87.13
29549;BME280;16487;53.094;8.800;2022-09-21T05:34:36;104443.16;;;7.46;86.66
29549;BME280;16487;53.094;8.800;2022-09-21T05:37:09;104452.31;;;7.46;86.21
29549;BME280;16487;53.094;8.800;2022-09-21T05:39:39;104456.56;;;7.44;86.19
29549;BME280;16487;53.094;8.800;2022-09-21T05:42:08;104452.00;;;7.48;85.61
29549;BME280;16487;53.094;8.800;2022-09-21T05:44:36;104458.00;;;7.50;85.56
29549;BME280;16487;53.094;8.800;2022-09-21T05:47:12;104455.09;;;7.46;86.13
29549;BME280;16487;53.094;8.800;2022-09-21T05:49:54;104463.44;;;7.46;85.90
29549;BME280;16487;53.094;8.800;2022-09-21T05:52:29;104451.31;;;7.51;85.44
29549;BME280;16487;53.094;8.800;2022-09-21T05:55:08;104449.66;;;7.50;85.17
29549;BME280;16487;53.094;8.800;2022-09-21T05:57:45;104441.81;;;7.52;84.76
29549;BME280;16487;53.094;8.800;2022-09-21T06:00:17;104440.69;;;7.53;83.78
29549;BME280;16487;53.094;8.800;2022-09-21T06:03:03;104443.78;;;7.60;83.84
29549;BME280;16487;53.094;8.800;2022-09-21T06:05:45;104445.06;;;7.62;83.26
29549;BME280;16487;53.094;8.800;2022-09-21T06:08:12;104449.16;;;7.65;83.34
29549;BME280;16487;53.094;8.800;2022-09-21T06:10:39;104453.69;;;7.69;83.53
29549;BME280;16487;53.094;8.800;2022-09-21T06:13:07;104443.88;;;7.72;83.54
29549;BME280;16487;53.094;8.800;2022-09-21T06:15:34;104434.22;;;7.78;83.52
29549;BME280;16487;53.094;8.800;2022-09-21T06:18:01;104421.28;;;7.82;83.28
29549;BME280;16487;53.094;8.800;2022-09-21T06:20:28;104412.78;;;7.87;83.06
29549;BME280;16487;53.094;8.800;2022-09-21T06:23:00;104407.50;;;7.94;83.16
29549;BME280;16487;53.094;8.800;2022-09-21T06:25:28;104396.19;;;7.99;83.54
29549;BME280;16487;53.094;8.800;2022-09-21T06:27:55;104369.16;;;8.08;80.61
29549;BME280;16487;53.094;8.800;2022-09-21T06:30:27;104382.38;;;8.11;78.16
29549;BME280;16487;53.094;8.800;2022-09-21T06:32:58;104375.78;;;8.24;77.67
29549;BME280;16487;53.094;8.800;2022-09-21T06:35:25;104360.88;;;8.29;77.82
29549;BME280;16487;53.094;8.800;2022-09-21T06:37:57;104350.03;;;8.36;77.87
29549;BME280;16487;53.094;8.800;2022-09-21T06:40:26;104351.22;;;8.47;77.90
29549;BME280;16487;53.094;8.800;2022-09-21T06:42:57;104329.94;;;8.51;78.93
29549;BME280;16487;53.094;8.800;2022-09-21T06:45:25;104276.75;;;8.52;79.45
29549;BME280;16487;53.094;8.800;2022-09-21T06:47:52;104235.66;;;8.58;80.15
29549;BME280;16487;53.094;8.800;2022-09-21T06:50:20;104183.06;;;8.65;81.00
29549;BME280;16487;53.094;8.800;2022-09-21T06:52:48;104147.72;;;8.77;81.57
29549;BME280;16487;53.094;8.800;2022-09-21T06:55:15;104103.69;;;8.79;82.61
29549;BME280;16487;53.094;8.800;2022-09-21T06:57:44;104062.31;;;8.90;83.37
29549;BME280;16487;53.094;8.800;2022-09-21T07:00:13;104004.22;;;8.88;85.20
29549;BME280;16487;53.094;8.800;2022-09-21T07:02:42;103980.31;;;8.99;86.18
29549;BME280;16487;53.094;8.800;2022-09-21T07:05:10;103924.59;;;9.11;87.63
29549;BME280;16487;53.094;8.800;2022-09-21T07:07:37;103880.81;;;9.24;89.20
29549;BME280;16487;53.094;8.800;2022-09-21T07:10:06;103847.16;;;9.29;90.46
29549;BME280;16487;53.094;8.800;2022-09-21T07:12:38;103805.50;;;9.33;92.23
29549;BME280;16487;53.094;8.800;2022-09-21T07:15:08;103809.25;;;9.40;92.64
29549;BME280;16487;53.094;8.800;2022-09-21T07:17:38;103786.59;;;9.57;93.60
29549;BME280;16487;53.094;8.800;2022-09-21T07:20:06;103763.84;;;9.71;95.15
29549;BME280;16487;53.094;8.800;2022-09-21T07:22:34;103746.53;;;9.81;96.62
29549;BME280;16487;53.094;8.800;2022-09-21T07:25:03;103730.00;;;9.88;98.38
29549;BME280;16487;53.094;8.800;2022-09-21T07:27:31;103704.63;;;9.93;100.00
29549;BME280;16487;53.094;8.800;2022-09-21T07:29:59;103688.03;;;10.00;100.00
29549;BME280;16487;53.094;8.800;2022-09-21T07:32:27;103662.53;;;10.17;100.00
29549;BME280;16487;53.094;8.800;2022-09-21T07:34:55;103651.22;;;10.29;100.00
29549;BME280;16487;53.094;8.800;2022-09-21T07:37:22;103630.22;;;10.35;100.00
29549;BME280;16487;53.094;8.800;2022-09-21T07:39:50;103612.81;;;10.42;100.00
29549;BME280;16487;53.094;8.800;2022-09-21T07:42:17;103587.00;;;10.48;100.00
29549;BME280;16487;53.094;8.800;2022-09-21T07:44:45;103563.34;;;10.61;100.00
29549;BME280;16487;53.094;8.800;2022-09-21T07:47:13;103541.53;;;10.70;100.00
29549;BME280;16487;53.094;8.800;2022-09-21T07:49:41;103503.34;;;10.74;100.00
29549;BME280;16487;53.094;8.800;2022-09-21T07:52:09;103451.28;;;10.85;100.00
29549;BME280;16487;53.094;8.800;2022-09-21T07:54:37;103416.28;;;10.91;100.00
29549;BME280;16487;53.094;8.800;2022-09-21T07:57:04;103366.97;;;11.02;100.00
29549;BME280;16487;53.094;8.800;2022-09-21T07:59:32;103321.66;;;11.16;100.00
29549;BME280;16487;53.094;8.800;2022-09-21T08:01:59;103263.06;;;11.19;100.00
29549;BME280;16487;53.094;8.800;2022-09-21T08:04:26;103203.72;;;11.29;100.00
29549;BME280;16487;53.094;8.800;2022-09-21T08:06:55;103138.41;;;11.41;100.00
29549;BME280;16487;53.094;8.800;2022-09-21T08:09:22;103080.59;;;11.55;100.00
29549;BME280;16487;53.094;8.800;2022-09-21T08:11:49;103035.19;;;11.73;100.00
29549;BME280;16487;53.094;8.800;2022-09-21T08:14:17;103002.06;;;11.82;100.00
29549;BME280;16487;53.094;8.800;2022-09-21T08:16:51;102960.56;;;11.87;100.00
29549;BME280;16487;53.094;8.800;2022-09-21T08:19:18;102923.03;;;11.99;100.00
29549;BME280;16487;53.094;8.800;2022-09-21T08:21:47;102889.91;;;12.04;100.00
29549;BME280;16487;53.094;8.800;2022-09-21T08:24:19;102862.75;;;12.08;100.00
29549;BME280;16487;53.094;8.800;2022-09-21T08:26:47;102838.75;;;12.14;100.00
29549;BME280;16487;53.094;8.800;2022-09-21T08:29:14;102815.56;;;12.21;100.00
29549;BME280;16487;53.094;8.800;2022-09-21T08:31:41;102802.34;;;12.39;100.00
29549;BME280;16487;53.094;8.800;2022-09-21T08:34:10;102790.28;;;12.52;100.00
29549;BME280;16487;53.094;8.800;2022-09-21T08:36:37;102783.09;;;12.55;100.00
29549;BME280;16487;53.094;8.800;2022-09-21T08:39:05;102781.38;;;12.75;100.00
29549;BME280;16487;53.094;8.800;2022-09-21T08:44:28;102761.31;;;12.87;100.00
29549;BME280;16487;53.094;8.800;2022-09-21T08:47:03;102763.22;;;13.04;100.00
29549;BME280;16487;53.094;8.800;2022-09-21T08:49:33;102757.88;;;13.24;100.00
29549;BME280;16487;53.094;8.800;2022-09-21T08:52:05;102748.25;;;13.25;100.00
29549;BME280;16487;53.094;8.800;2022-09-21T08:54:39;102747.47;;;13.24;100.00
29549;BME280;16487;53.094;8.800;2022-09-21T08:57:11;102746.59;;;13.34;100.00
29549;BME280;16487;53.094;8.800;2022-09-21T08:59:43;102740.19;;;13.34;100.00
29549;BME280;16487;53.094;8.800;2022-09-21T09:02:37;102746.06;;;13.46;100.00
29549;BME280;16487;53.094;8.800;2022-09-21T09:05:19;102748.34;;;13.58;100.00
29549;BME280;16487;53.094;8.800;2022-09-21T09:08:20;102742.91;;;13.82;100.00
29549;BME280;16487;53.094;8.800;2022-09-21T09:11:00;102746.91;;;13.80;100.00
29549;BME280;16487;53.094;8.800;2022-09-21T09:13:44;102740.22;;;14.05;100.00
29549;BME280;16487;53.094;8.800;2022-09-21T09:16:22;102734.63;;;14.05;100.00
29549;BME280;16487;53.094;8.800;2022-09-21T09:18:54;102743.34;;;14.14;100.00
29549;BME280;16487;53.094;8.800;2022-09-21T09:21:27;102738.09;;;14.16;100.00
29549;BME280;16487;53.094;8.800;2022-09-21T09:24:01;102738.78;;;14.27;100.00
29549;BME280;16487;53.094;8.800;2022-09-21T09:26:34;102746.28;;;14.37;100.00
29549;BME280;16487;53.094;8.800;2022-09-21T09:29:13;102739.44;;;14.38;100.00
29549;BME280;16487;53.094;8.800;2022-09-21T09:31:43;102738.03;;;14.53;100.00
29549;BME280;16487;53.094;8.800;2022-09-21T09:34:14;102730.00;;;14.55;100.00
29549;BME280;16487;53.094;8.800;2022-09-21T09:36:46;102735.31;;;14.76;100.00
29549;BME280;16487;53.094;8.800;2022-09-21T09:39:28;102730.66;;;14.66;100.00
29549;BME280;16487;53.094;8.800;2022-09-21T09:42:06;102727.03;;;14.92;100.00
29549;BME280;16487;53.094;8.800;2022-09-21T09:44:49;102728.63;;;14.93;100.00
29549;BME280;16487;53.094;8.800;2022-09-21T09:47:29;102722.66;;;15.14;100.00
29549;BME280;16487;53.094;8.800;2022-09-21T09:50:04;102731.34;;;15.23;100.00
29549;BME280;16487;53.094;8.800;2022-09-21T09:52:32;102736.09;;;15.26;100.00
29549;BME280;16487;53.094;8.800;2022-09-21T09:55:00;102726.22;;;15.41;100.00
29549;BME280;16487;53.094;8.800;2022-09-21T09:57:37;102727.94;;;15.58;100.00
29549;BME280;16487;53.094;8.800;2022-09-21T10:00:07;102732.94;;;15.70;100.00
29549;BME280;16487;53.094;8.800;2022-09-21T10:02:46;102720.31;;;17.69;100.00
29549;BME280;16487;53.094;8.800;2022-09-21T10:05:19;102729.59;;;18.90;100.00
29549;BME280;16487;53.094;8.800;2022-09-21T10:07:47;102731.09;;;18.28;100.00
29549;BME280;16487;53.094;8.800;2022-09-21T10:10:35;102725.34;;;19.45;100.00
29549;BME280;16487;53.094;8.800;2022-09-21T10:13:11;102721.09;;;20.79;100.00
29549;BME280;16487;53.094;8.800;2022-09-21T10:15:47;102724.47;;;19.22;100.00
29549;BME280;16487;53.094;8.800;2022-09-21T10:18:18;102730.41;;;19.84;100.00
29549;BME280;16487;53.094;8.800;2022-09-21T10:20:55;102719.25;;;20.85;100.00
29549;BME280;16487;53.094;8.800;2022-09-21T10:23:23;102714.69;;;21.72;100.00
29549;BME280;16487;53.094;8.800;2022-09-21T10:25:56;102720.91;;;21.13;100.00
29549;BME280;16487;53.094;8.800;2022-09-21T10:28:25;102720.31;;;21.18;100.00
29549;BME280;16487;53.094;8.800;2022-09-21T10:31:09;102717.13;;;21.07;100.00
29549;BME280;16487;53.094;8.800;2022-09-21T10:33:49;102711.84;;;21.63;100.00
29549;BME280;16487;53.094;8.800;2022-09-21T10:36:32;102714.06;;;20.92;100.00
29549;BME280;16487;53.094;8.800;2022-09-21T10:39:27;102721.63;;;20.25;100.00
29549;BME280;16487;53.094;8.800;2022-09-21T10:41:58;102712.09;;;20.40;100.00
29549;BME280;16487;53.094;8.800;2022-09-21T10:44:28;102716.25;;;20.05;100.00
29549;BME280;16487;53.094;8.800;2022-09-21T10:47:11;102709.88;;;20.66;100.00
29549;BME280;16487;53.094;8.800;2022-09-21T10:49:45;102713.38;;;20.39;100.00
29549;BME280;16487;53.094;8.800;2022-09-21T10:52:13;102711.72;;;21.94;100.00
29549;BME280;16487;53.094;8.800;2022-09-21T10:54:40;102702.84;;;21.64;100.00
29549;BME280;16487;53.094;8.800;2022-09-21T10:57:14;102708.34;;;21.32;100.00
29549;BME280;16487;53.094;8.800;2022-09-21T10:59:42;102705.41;;;20.96;100.00
29549;BME280;16487;53.094;8.800;2022-09-21T11:02:34;102698.06;;;21.07;100.00
29549;BME280;16487;53.094;8.800;2022-09-21T11:05:10;102711.53;;;19.47;100.00
29549;BME280;16487;53.094;8.800;2022-09-21T11:07:43;102705.56;;;20.22;100.00
29549;BME280;16487;53.094;8.800;2022-09-21T11:10:18;102697.22;;;21.83;100.00
29549;BME280;16487;53.094;8.800;2022-09-21T11:13:09;102688.44;;;23.06;100.00
29549;BME280;16487;53.094;8.800;2022-09-21T11:15:48;102690.44;;;24.00;100.00
29549;BME280;16487;53.094;8.800;2022-09-21T11:18:22;102693.50;;;23.72;100.00
29549;BME280;16487;53.094;8.800;2022-09-21T11:20:56;102688.56;;;23.58;100.00
29549;BME280;16487;53.094;8.800;2022-09-21T11:23:37;102680.59;;;23.86;100.00
29549;BME280;16487;53.094;8.800;2022-09-21T11:26:12;102689.88;;;23.72;100.00
29549;BME280;16487;53.094;8.800;2022-09-21T11:28:47;102689.66;;;24.28;100.00
29549;BME280;16487;53.094;8.800;2022-09-21T11:31:30;102687.91;;;23.78;100.00
29549;BME280;16487;53.094;8.800;2022-09-21T11:34:15;102672.00;;;25.08;100.00
29549;BME280;16487;53.094;8.800;2022-09-21T11:36:55;102673.97;;;25.37;100.00
29549;BME280;16487;53.094;8.800;2022-09-21T11:39:33;102690.00;;;23.92;100.00
29549;BME280;16487;53.094;8.800;2022-09-21T11:42:13;102690.56;;;23.67;100.00
29549;BME280;16487;53.094;8.800;2022-09-21T11:44:52;102682.16;;;24.45;100.00
29549;BME280;16487;53.094;8.800;2022-09-21T11:50:35;102680.78;;;24.41;100.00
29549;BME280;16487;53.094;8.800;2022-09-21T11:53:16;102681.34;;;23.72;100.00
29549;BME280;16487;53.094;8.800;2022-09-21T11:56:14;102686.81;;;23.61;100.00
29549;BME280;16487;53.094;8.800;2022-09-21T11:58:50;102688.28;;;23.33;100.00
29549;BME280;16487;53.094;8.800;2022-09-21T12:01:34;102683.16;;;22.90;100.00
29549;BME280;16487;53.094;8.800;2022-09-21T12:04:20;102682.78;;;23.29;100.00
29549;BME280;16487;53.094;8.800;2022-09-21T12:07:08;102681.09;;;23.99;100.00
29549;BME280;16487;53.094;8.800;2022-09-21T12:10:09;102666.09;;;24.62;100.00
29549;BME280;16487;53.094;8.800;2022-09-21T12:12:47;102666.75;;;24.08;100.00
29549;BME280;16487;53.094;8.800;2022-09-21T12:15:22;102670.19;;;24.41;100.00
29549;BME280;16487;53.094;8.800;2022-09-21T12:17:57;102669.06;;;23.95;100.00
29549;BME280;16487;53.094;8.800;2022-09-21T12:20:37;102666.13;;;21.88;100.00
29549;BME280;16487;53.094;8.800;2022-09-21T12:23:13;102679.53;;;20.36;100.00
29549;BME280;16487;53.094;8.800;2022-09-21T12:25:46;102678.59;;;21.63;100.00
29549;BME280;16487;53.094;8.800;2022-09-21T12:28:19;102676.06;;;21.29;100.00
29549;BME280;16487;53.094;8.800;2022-09-21T12:30:50;102679.13;;;19.60;100.00
29549;BME280;16487;53.094;8.800;2022-09-21T12:33:31;102666.53;;;20.26;100.00
29549;BME280;16487;53.094;8.800;2022-09-21T12:36:06;102656.66;;;21.82;100.00
29549;BME280;16487;53.094;8.800;2022-09-21T12:38:40;102659.66;;;21.88;100.00
29549;BME280;16487;53.094;8.800;2022-09-21T12:41:13;102661.81;;;22.61;100.00
29549;BME280;16487;53.094;8.800;2022-09-21T12:43:47;102659.09;;;23.47;100.00
29549;BME280;16487;53.094;8.800;2022-09-21T12:46:19;102650.59;;;23.76;100.00
29549;BME280;16487;53.094;8.800;2022-09-21T12:48:47;102640.22;;;26.12;100.00
29549;BME280;16487;53.094;8.800;2022-09-21T12:51:18;102656.34;;;23.52;100.00
29549;BME280;16487;53.094;8.800;2022-09-21T12:53:50;102649.63;;;22.28;100.00
29549;BME280;16487;53.094;8.800;2022-09-21T12:56:27;102657.84;;;22.26;100.00
29549;BME280;16487;53.094;8.800;2022-09-21T12:59:08;102650.19;;;23.07;100.00
29549;BME280;16487;53.094;8.800;2022-09-21T13:01:41;102647.94;;;20.46;100.00
29549;BME280;16487;53.094;8.800;2022-09-21T13:04:23;102649.72;;;21.02;100.00
29549;BME280;16487;53.094;8.800;2022-09-21T13:07:25;102644.44;;;23.16;100.00
29549;BME280;16487;53.094;8.800;2022-09-21T13:09:56;102646.59;;;22.73;100.00
29549;BME280;16487;53.094;8.800;2022-09-21T13:12:26;102633.25;;;22.14;100.00
29549;BME280;16487;53.094;8.800;2022-09-21T13:14:58;102640.88;;;21.00;100.00
29549;BME280;16487;53.094;8.800;2022-09-21T13:17:30;102646.94;;;19.88;100.00
29549;BME280;16487;53.094;8.800;2022-09-21T13:20:01;102645.91;;;19.73;100.00
29549;BME280;16487;53.094;8.800;2022-09-21T13:22:30;102645.28;;;21.10;100.00
29549;BME280;16487;53.094;8.800;2022-09-21T13:25:03;102631.94;;;21.19;100.00
29549;BME280;16487;53.094;8.800;2022-09-21T13:28:04;102627.34;;;22.68;100.00